Latimer, Mississippi
Current Conditions -  °F | °C
As of 9:13 AM on Monday 22 Dec 2014 (Local Time) from KBIX Reporting Station
Broken Clouds Broken Clouds  
Wind Chill: 64°   Ceiling: 500
Heat Index: 64°   Visibility: 10mi
Dew Point: 64°   Wind: 7mph
Humidity: 100%   Direction: 120°ESE
Pressure: 29.85"   Gusts: NA
Location:  30.418°N, 88.7558°W
Report Text: KBIX 221513Z AUTO 12006KT 10SM BKN005 BKN026 18/18 A2985 RMK AO2 CIG 005V027 BKN005 V SCT
Loading
Personal Weather Stations






























Interactive Weather Map New forecast layout! Learn more

10-Day Weather Forecast

Advertisements
Track Severe Weather on mobile